Terminal Aerodrome Forecast
Issued by NWS

Home | Current Version | Previous Version | Text Only | Print | Product List | Glossary On
Versions: 1 2 3 4 5 6 7 8 9 10 11 12 13 14 15 16 17 18 19 20 21 22 23 24 25 26 27
198
FTUS43 KLSX 221737 RRB
TAFCPS
TAF
KCPS 221737Z 2218/2318 33005KT P6SM FEW040 SCT250
     FM230600 00000KT 5SM BR FEW250
     FM231300 VRB03KT P6SM FEW200
     FM231400 10005KT P6SM FEW250=

USA.gov is the U.S. government's official web portal to all federal, state and local government web resources and services.